Time;durP1;ratioP1;P1;durP2;ratioP2;P2;SDS_P1;SDS_P2;PMS_P1;PMS_P2;Temp;Humidity;BMP_temperature;BMP_pressure;BME280_temperature;BME280_humidity;BME280_pressure;Samples;Min_cycle;Max_cycle;Signal;HPM_P1;HPM_P2
2021/12/23 00:02:07;;;;;;;22.25;13.65;;;;;;;;;;5028895;28;43878;-80
2021/12/23 00:04:34;;;;;;;21.05;14.10;;;;;;;;;;5029970;28;44467;-81
2021/12/23 00:07:00;;;;;;;20.25;14.25;;;;;;;;;;5028382;28;43326;-81
2021/12/23 00:09:30;;;;;;;22.83;14.73;;;;;;;;;;5029277;28;44731;-81
2021/12/23 00:11:57;;;;;;;24.55;15.05;;;;;;;;;;5028982;28;43723;-80
2021/12/23 00:14:24;;;;;;;23.40;14.80;;;;;;;;;;5028345;28;42668;-80
2021/12/23 00:17:16;;;;;;;25.02;13.70;;;;;;;;;;5028127;28;43977;-81
2021/12/23 00:19:48;;;;;;;21.08;13.05;;;;;;;;;;5029509;28;45832;-80
2021/12/23 00:24:59;;;;;;;19.80;13.10;;;;;;;;;;5048901;28;42874;-81
2021/12/23 00:27:26;;;;;;;20.55;13.30;;;;;;;;;;5047857;28;42729;-81
2021/12/23 00:29:53;;;;;;;23.80;13.77;;;;;;;;;;5049553;28;44872;-80
2021/12/23 00:32:19;;;;;;;25.98;13.63;;;;;;;;;;5048111;28;44668;-81
2021/12/23 00:34:46;;;;;;;21.50;14.00;;;;;;;;;;5048171;28;45342;-81
2021/12/23 00:37:13;;;;;;;23.38;13.82;;;;;;;;;;5048361;28;42920;-80
2021/12/23 00:39:40;;;;;;;21.02;14.38;;;;;;;;;;5049313;28;43737;-80
2021/12/23 00:42:08;;;;;;;22.00;13.65;;;;;;;;;;5050286;28;45928;-81
2021/12/23 00:44:36;;;;;;;23.05;14.13;;;;;;;;;;5052533;28;44868;-81
2021/12/23 00:47:03;;;;;;;24.40;14.32;;;;;;;;;;5051414;28;44791;-81
2021/12/23 00:49:30;;;;;;;21.33;13.35;;;;;;;;;;5051697;28;43208;-81
2021/12/23 00:51:57;;;;;;;21.23;12.98;;;;;;;;;;5052004;28;41876;-81
2021/12/23 00:54:24;;;;;;;20.90;14.10;;;;;;;;;;5051959;28;45256;-80
2021/12/23 00:56:51;;;;;;;22.83;14.20;;;;;;;;;;5050688;28;44876;-80
2021/12/23 00:59:18;;;;;;;21.25;13.93;;;;;;;;;;5051871;28;43753;-80
2021/12/23 01:01:46;;;;;;;20.95;12.75;;;;;;;;;;5051039;28;43921;-81
2021/12/23 01:04:14;;;;;;;22.77;13.95;;;;;;;;;;5051108;28;45358;-82
2021/12/23 01:06:41;;;;;;;20.27;13.63;;;;;;;;;;5050316;28;44790;-81
2021/12/23 01:09:08;;;;;;;24.60;13.48;;;;;;;;;;5052086;28;45063;-81
2021/12/23 01:11:35;;;;;;;24.52;13.57;;;;;;;;;;5050823;28;42595;-81
2021/12/23 01:14:25;;;;;;;21.40;12.90;;;;;;;;;;5052147;28;42505;-80
2021/12/23 01:17:11;;;;;;;23.88;13.55;;;;;;;;;;5050489;28;43914;-81
2021/12/23 01:19:40;;;;;;;23.55;13.23;;;;;;;;;;5052004;28;43702;-81
2021/12/23 01:22:07;;;;;;;16.00;12.57;;;;;;;;;;5050899;28;45517;-80
2021/12/23 01:24:34;;;;;;;18.95;12.57;;;;;;;;;;5051587;28;43886;-81
2021/12/23 01:27:01;;;;;;;21.80;13.60;;;;;;;;;;5050880;28;43621;-81
2021/12/23 01:29:28;;;;;;;20.98;13.98;;;;;;;;;;5051737;28;44023;-81
2021/12/23 01:31:55;;;;;;;24.38;14.68;;;;;;;;;;5049362;28;42841;-81
2021/12/23 01:34:21;;;;;;;20.20;12.98;;;;;;;;;;5051426;28;43735;-81
2021/12/23 01:36:48;;;;;;;20.65;13.00;;;;;;;;;;5051419;28;43895;-81
2021/12/23 01:39:14;;;;;;;24.92;13.43;;;;;;;;;;5050543;28;42732;-81
2021/12/23 01:41:41;;;;;;;19.65;12.25;;;;;;;;;;5050604;28;44996;-80
2021/12/23 01:44:08;;;;;;;20.08;13.13;;;;;;;;;;5051119;28;42754;-81
2021/12/23 01:46:34;;;;;;;21.45;13.68;;;;;;;;;;5050063;28;43755;-81
2021/12/23 01:49:02;;;;;;;17.58;12.98;;;;;;;;;;5051247;28;42961;-80
2021/12/23 01:51:29;;;;;;;24.88;14.13;;;;;;;;;;5049737;28;44989;-81
2021/12/23 01:53:55;;;;;;;20.95;13.65;;;;;;;;;;5051189;28;42745;-81
2021/12/23 01:56:25;;;;;;;21.45;14.00;;;;;;;;;;5049792;28;44192;-81
2021/12/23 01:58:51;;;;;;;23.27;13.90;;;;;;;;;;5050772;28;37106;-81
2021/12/23 02:01:18;;;;;;;18.20;12.68;;;;;;;;;;5049977;28;45000;-80
2021/12/23 02:03:45;;;;;;;18.08;12.65;;;;;;;;;;5050780;28;42877;-81
2021/12/23 02:06:12;;;;;;;21.58;13.82;;;;;;;;;;5049819;28;42629;-81
2021/12/23 02:08:39;;;;;;;23.55;14.25;;;;;;;;;;5050705;28;42782;-81
2021/12/23 02:11:07;;;;;;;22.40;13.75;;;;;;;;;;5050758;28;42413;-80
2021/12/23 02:13:34;;;;;;;22.92;13.35;;;;;;;;;;5050599;28;43760;-80
2021/12/23 02:16:02;;;;;;;24.80;12.77;;;;;;;;;;5051021;28;42622;-80
2021/12/23 02:18:29;;;;;;;23.85;14.10;;;;;;;;;;5050569;28;44880;-80
2021/12/23 02:20:56;;;;;;;20.70;13.30;;;;;;;;;;5050004;28;45161;-80
2021/12/23 02:23:24;;;;;;;19.98;13.07;;;;;;;;;;5049990;28;43693;-80
2021/12/23 02:25:50;;;;;;;31.95;13.38;;;;;;;;;;5050593;28;43747;-80
2021/12/23 02:28:18;;;;;;;22.58;13.68;;;;;;;;;;5049488;28;44316;-81
2021/12/23 02:30:45;;;;;;;21.60;14.38;;;;;;;;;;5049972;28;42927;-81
2021/12/23 02:33:12;;;;;;;17.77;12.50;;;;;;;;;;5049620;28;42782;-80
2021/12/23 02:35:39;;;;;;;20.38;12.88;;;;;;;;;;5049616;28;44985;-80
2021/12/23 02:38:06;;;;;;;24.40;14.75;;;;;;;;;;5049996;28;44294;-80
2021/12/23 02:40:32;;;;;;;22.75;14.10;;;;;;;;;;5051344;28;44615;-80
2021/12/23 02:43:10;;;;;;;24.95;13.40;;;;;;;;;;5049168;28;44980;-80
2021/12/23 02:45:37;;;;;;;19.30;13.32;;;;;;;;;;5050110;28;42690;-80
2021/12/23 02:48:04;;;;;;;24.77;14.30;;;;;;;;;;5048736;28;43491;-80
2021/12/23 02:50:30;;;;;;;21.65;13.77;;;;;;;;;;5050623;28;44072;-80
2021/12/23 02:52:58;;;;;;;24.63;13.63;;;;;;;;;;5049940;28;42708;-80
2021/12/23 02:55:25;;;;;;;20.30;14.13;;;;;;;;;;5049534;28;43972;-80
2021/12/23 02:57:52;;;;;;;26.27;13.85;;;;;;;;;;5049284;28;44992;-80
2021/12/23 03:00:19;;;;;;;25.25;14.45;;;;;;;;;;5050363;28;44758;-80
2021/12/23 03:02:46;;;;;;;25.77;15.02;;;;;;;;;;5048029;28;44021;-80
2021/12/23 03:05:12;;;;;;;23.25;14.57;;;;;;;;;;5050636;28;44756;-80
2021/12/23 03:07:39;;;;;;;23.75;13.32;;;;;;;;;;5048858;28;45009;-80
2021/12/23 03:10:07;;;;;;;21.58;14.40;;;;;;;;;;5048515;28;45104;-80
2021/12/23 03:12:34;;;;;;;20.00;13.73;;;;;;;;;;5049675;28;44651;-80
2021/12/23 03:15:01;;;;;;;26.27;14.85;;;;;;;;;;5049787;28;42812;-80
2021/12/23 03:17:29;;;;;;;23.55;14.88;;;;;;;;;;5048945;28;44868;-80
2021/12/23 03:19:56;;;;;;;23.30;14.00;;;;;;;;;;5049879;28;43735;-80
2021/12/23 03:22:23;;;;;;;23.25;14.20;;;;;;;;;;5050321;28;20053;-80
2021/12/23 03:24:49;;;;;;;22.48;13.90;;;;;;;;;;5049506;28;43975;-80
2021/12/23 03:27:16;;;;;;;21.42;14.23;;;;;;;;;;5049179;28;42913;-80
2021/12/23 03:29:43;;;;;;;24.73;14.32;;;;;;;;;;5049719;28;43853;-80
2021/12/23 03:32:09;;;;;;;21.50;14.65;;;;;;;;;;5048090;28;43678;-80
2021/12/23 03:34:36;;;;;;;21.60;14.65;;;;;;;;;;5049334;28;46114;-80
2021/12/23 03:37:03;;;;;;;23.35;15.43;;;;;;;;;;5048299;28;43945;-79
2021/12/23 03:39:30;;;;;;;24.48;15.15;;;;;;;;;;5049415;28;42722;-80
2021/12/23 03:41:57;;;;;;;24.25;15.15;;;;;;;;;;5049047;28;44494;-80
2021/12/23 03:44:24;;;;;;;25.65;14.90;;;;;;;;;;5048805;28;45029;-80
2021/12/23 03:46:50;;;;;;;23.42;13.95;;;;;;;;;;5049565;28;44806;-80
2021/12/23 03:49:17;;;;;;;23.65;13.75;;;;;;;;;;5049543;28;45046;-80
2021/12/23 03:51:44;;;;;;;23.38;14.45;;;;;;;;;;5048380;28;44946;-80
2021/12/23 03:54:10;;;;;;;25.23;14.02;;;;;;;;;;5049787;28;44941;-80
2021/12/23 03:56:37;;;;;;;27.40;14.82;;;;;;;;;;5049433;28;44357;-80
2021/12/23 03:59:04;;;;;;;26.88;15.63;;;;;;;;;;5048127;28;45418;-80
2021/12/23 04:01:31;;;;;;;24.73;15.02;;;;;;;;;;5048967;28;45132;-80
2021/12/23 04:03:58;;;;;;;27.52;15.75;;;;;;;;;;5049383;28;44714;-81
2021/12/23 04:06:26;;;;;;;24.45;14.77;;;;;;;;;;5048804;28;44752;-81
2021/12/23 04:08:54;;;;;;;25.05;15.30;;;;;;;;;;5049161;28;42903;-81
2021/12/23 04:11:21;;;;;;;19.90;13.98;;;;;;;;;;5048570;28;42971;-80
2021/12/23 04:13:49;;;;;;;23.48;15.55;;;;;;;;;;5049121;28;43925;-80
2021/12/23 04:16:16;;;;;;;25.67;16.10;;;;;;;;;;5052369;28;44110;-80
2021/12/23 04:18:45;;;;;;;21.45;15.60;;;;;;;;;;5052318;28;43560;-80
2021/12/23 04:21:13;;;;;;;25.08;16.02;;;;;;;;;;5051855;28;45105;-81
2021/12/23 04:23:39;;;;;;;24.77;16.08;;;;;;;;;;5052052;28;42921;-80
2021/12/23 04:26:09;;;;;;;24.75;15.75;;;;;;;;;;5052678;28;46277;-80
2021/12/23 04:28:45;;;;;;;24.25;16.17;;;;;;;;;;5052771;28;42974;-80
2021/12/23 04:31:16;;;;;;;28.95;17.17;;;;;;;;;;5052506;28;45060;-81
2021/12/23 04:33:43;;;;;;;28.88;16.00;;;;;;;;;;5051503;28;44399;-80
2021/12/23 04:36:10;;;;;;;22.80;15.65;;;;;;;;;;5052318;28;44089;-81
2021/12/23 04:38:38;;;;;;;24.10;16.20;;;;;;;;;;5052408;28;42750;-80
2021/12/23 04:41:05;;;;;;;32.90;17.48;;;;;;;;;;5051925;28;20050;-80
2021/12/23 04:43:32;;;;;;;30.52;17.10;;;;;;;;;;5051428;28;44872;-81
2021/12/23 04:45:59;;;;;;;26.08;17.35;;;;;;;;;;5051572;28;44862;-80
2021/12/23 04:48:26;;;;;;;28.42;17.10;;;;;;;;;;5048266;28;46140;-81
2021/12/23 04:50:52;;;;;;;25.70;17.90;;;;;;;;;;5050346;28;45014;-81
2021/12/23 04:53:19;;;;;;;27.38;16.58;;;;;;;;;;5049741;28;43898;-81
2021/12/23 04:55:46;;;;;;;27.52;17.73;;;;;;;;;;5049671;28;43845;-80
2021/12/23 04:58:13;;;;;;;32.13;18.55;;;;;;;;;;5051639;28;44720;-80
2021/12/23 05:00:42;;;;;;;28.15;17.80;;;;;;;;;;5052053;28;43508;-80
2021/12/23 05:03:09;;;;;;;33.10;17.50;;;;;;;;;;5050169;28;43896;-80
2021/12/23 05:05:36;;;;;;;30.33;16.95;;;;;;;;;;5051933;28;44768;-81
2021/12/23 05:08:03;;;;;;;31.65;17.20;;;;;;;;;;5050825;28;43905;-81
2021/12/23 05:10:30;;;;;;;30.13;17.55;;;;;;;;;;5051320;28;42166;-80
2021/12/23 05:12:58;;;;;;;32.03;18.80;;;;;;;;;;5051130;28;44785;-80
2021/12/23 05:15:25;;;;;;;34.08;19.10;;;;;;;;;;5050921;28;44872;-80
2021/12/23 05:17:51;;;;;;;30.77;18.23;;;;;;;;;;5050408;28;44720;-80
2021/12/23 05:20:18;;;;;;;33.25;18.75;;;;;;;;;;5051055;28;42878;-80
2021/12/23 05:22:46;;;;;;;32.28;19.90;;;;;;;;;;5048974;28;44889;-80
2021/12/23 05:25:13;;;;;;;36.67;19.20;;;;;;;;;;5049311;28;45014;-80
2021/12/23 05:27:39;;;;;;;29.90;18.77;;;;;;;;;;5048823;28;43948;-80
2021/12/23 05:30:08;;;;;;;33.80;19.88;;;;;;;;;;5059463;28;43521;-80
2021/12/23 05:32:34;;;;;;;33.70;20.15;;;;;;;;;;5064709;28;43800;-80
2021/12/23 05:35:01;;;;;;;34.05;19.70;;;;;;;;;;5068980;28;45111;-80
2021/12/23 05:37:28;;;;;;;30.35;18.65;;;;;;;;;;5058673;28;42521;-80
2021/12/23 05:39:54;;;;;;;32.42;19.85;;;;;;;;;;5065981;28;44922;-80
2021/12/23 05:42:21;;;;;;;39.28;21.25;;;;;;;;;;5061890;28;44364;-80
2021/12/23 05:44:48;;;;;;;35.85;21.40;;;;;;;;;;5052971;28;44776;-79
2021/12/23 05:47:19;;;;;;;39.03;20.88;;;;;;;;;;5068977;28;45018;-80
2021/12/23 05:49:46;;;;;;;45.03;22.13;;;;;;;;;;5064791;28;44126;-80
2021/12/23 05:52:13;;;;;;;44.00;22.77;;;;;;;;;;5068613;28;43878;-79
2021/12/23 05:54:39;;;;;;;45.95;23.00;;;;;;;;;;5067403;28;45121;-80
2021/12/23 05:57:06;;;;;;;36.67;21.85;;;;;;;;;;5052149;28;43889;-81
2021/12/23 05:59:33;;;;;;;42.83;22.67;;;;;;;;;;5050983;28;45031;-81
2021/12/23 06:02:00;;;;;;;42.50;23.45;;;;;;;;;;5049543;28;44909;-81
2021/12/23 06:04:27;;;;;;;46.80;22.77;;;;;;;;;;5051106;28;44723;-81
2021/12/23 06:06:54;;;;;;;43.08;22.52;;;;;;;;;;5049822;28;43413;-82
2021/12/23 06:09:20;;;;;;;41.75;22.42;;;;;;;;;;5050781;28;44920;-82
2021/12/23 06:11:47;;;;;;;35.38;20.65;;;;;;;;;;5049370;28;44022;-81
2021/12/23 06:14:14;;;;;;;37.85;21.42;;;;;;;;;;5050959;28;42096;-80
2021/12/23 06:16:40;;;;;;;38.42;21.33;;;;;;;;;;5050669;28;44897;-81
2021/12/23 06:19:07;;;;;;;36.85;21.25;;;;;;;;;;5049743;28;45259;-81
2021/12/23 06:21:35;;;;;;;38.25;22.13;;;;;;;;;;5050641;28;43958;-81
2021/12/23 06:24:05;;;;;;;38.72;21.88;;;;;;;;;;5050601;28;44876;-81
2021/12/23 06:26:32;;;;;;;35.63;20.38;;;;;;;;;;5048867;28;46317;-81
2021/12/23 06:28:59;;;;;;;39.78;22.13;;;;;;;;;;5050976;28;42906;-81
2021/12/23 06:31:26;;;;;;;44.15;21.75;;;;;;;;;;5050477;28;45180;-81
2021/12/23 06:33:52;;;;;;;36.25;21.20;;;;;;;;;;5049797;28;43971;-81
2021/12/23 06:36:19;;;;;;;39.42;21.17;;;;;;;;;;5050559;28;43918;-81
2021/12/23 06:38:46;;;;;;;37.50;21.92;;;;;;;;;;5049370;28;44925;-81
2021/12/23 06:41:12;;;;;;;39.67;22.40;;;;;;;;;;5049819;28;45062;-81
2021/12/23 06:43:39;;;;;;;40.63;21.92;;;;;;;;;;5050609;28;44741;-81
2021/12/23 06:46:06;;;;;;;40.55;22.38;;;;;;;;;;5051326;28;20161;-82
2021/12/23 06:48:33;;;;;;;40.08;22.00;;;;;;;;;;5049780;28;44034;-81
2021/12/23 06:51:00;;;;;;;40.53;22.98;;;;;;;;;;5049669;28;44696;-81
2021/12/23 06:53:27;;;;;;;44.03;23.83;;;;;;;;;;5050142;28;45052;-81
2021/12/23 06:55:55;;;;;;;38.55;22.70;;;;;;;;;;5049990;28;45139;-81
2021/12/23 06:58:23;;;;;;;43.15;22.88;;;;;;;;;;5050168;28;42661;-81
2021/12/23 07:00:50;;;;;;;46.17;24.23;;;;;;;;;;5050993;28;45152;-81
2021/12/23 07:03:17;;;;;;;40.93;23.43;;;;;;;;;;5049524;28;44884;-81
2021/12/23 07:05:44;;;;;;;45.38;24.23;;;;;;;;;;5050103;28;44244;-81
2021/12/23 07:08:24;;;;;;;42.85;23.50;;;;;;;;;;5048938;28;44874;-81
2021/12/23 07:10:52;;;;;;;50.45;24.58;;;;;;;;;;5050511;28;20057;-81
2021/12/23 07:13:19;;;;;;;44.78;24.55;;;;;;;;;;5049824;28;45050;-81
2021/12/23 07:15:45;;;;;;;44.85;24.73;;;;;;;;;;5048778;28;42863;-81
2021/12/23 07:18:13;;;;;;;45.60;24.55;;;;;;;;;;5045164;28;44655;-81
2021/12/23 07:20:39;;;;;;;49.33;26.02;;;;;;;;;;5049669;28;43860;-81
2021/12/23 07:23:06;;;;;;;50.22;23.30;;;;;;;;;;5048105;28;45136;-81
2021/12/23 07:25:33;;;;;;;48.33;25.42;;;;;;;;;;5049637;28;45093;-81
2021/12/23 07:28:00;;;;;;;48.28;25.70;;;;;;;;;;5048327;28;43911;-81
2021/12/23 07:30:27;;;;;;;47.88;24.08;;;;;;;;;;5047328;28;43973;-81
2021/12/23 07:32:54;;;;;;;49.88;24.85;;;;;;;;;;5047066;28;44887;-81
2021/12/23 07:35:20;;;;;;;48.05;25.83;;;;;;;;;;5047668;28;42446;-82
2021/12/23 07:37:48;;;;;;;49.63;24.65;;;;;;;;;;5047351;28;43740;-83
2021/12/23 07:40:16;;;;;;;48.85;25.75;;;;;;;;;;5049159;28;20061;-84
2021/12/23 07:42:53;;;;;;;50.70;26.77;;;;;;;;;;5048786;28;43875;-83
2021/12/23 07:45:24;;;;;;;54.33;27.60;;;;;;;;;;5050603;28;20537;-84
2021/12/23 07:47:51;;;;;;;47.85;25.63;;;;;;;;;;5049012;28;42906;-83
2021/12/23 07:50:19;;;;;;;55.60;27.15;;;;;;;;;;5051311;28;44799;-82
2021/12/23 07:52:48;;;;;;;51.17;27.30;;;;;;;;;;5049243;28;44762;-86
2021/12/23 07:55:15;;;;;;;54.13;27.05;;;;;;;;;;5052943;28;42613;-82
2021/12/23 07:57:42;;;;;;;47.63;24.83;;;;;;;;;;5051674;28;44788;-83
2021/12/23 08:00:17;;;;;;;49.55;26.15;;;;;;;;;;5053245;28;42827;-82
2021/12/23 08:02:44;;;;;;;47.53;25.45;;;;;;;;;;5052865;28;44913;-82
2021/12/23 08:05:11;;;;;;;52.15;26.90;;;;;;;;;;5051396;28;42541;-83
2021/12/23 08:07:38;;;;;;;56.35;28.70;;;;;;;;;;5052761;28;43928;-82
2021/12/23 08:10:05;;;;;;;46.95;24.85;;;;;;;;;;5053167;28;44027;-83
2021/12/23 08:12:31;;;;;;;54.03;25.65;;;;;;;;;;5051437;28;45420;-85
2021/12/23 08:15:00;;;;;;;55.38;26.52;;;;;;;;;;5052155;28;43970;-85
2021/12/23 08:17:38;;;;;;;52.90;25.70;;;;;;;;;;5050981;28;20096;-82
2021/12/23 08:20:09;;;;;;;49.80;25.98;;;;;;;;;;5047523;28;46244;-82
2021/12/23 08:22:36;;;;;;;48.78;24.15;;;;;;;;;;5050727;28;42755;-82
2021/12/23 08:25:03;;;;;;;59.75;27.45;;;;;;;;;;5050981;28;41996;-82
2021/12/23 08:27:31;;;;;;;51.63;27.20;;;;;;;;;;5050295;28;44982;-82
2021/12/23 08:29:58;;;;;;;50.25;23.98;;;;;;;;;;5050818;28;43820;-82
2021/12/23 08:32:24;;;;;;;48.83;25.83;;;;;;;;;;5049628;28;44276;-82
2021/12/23 08:34:51;;;;;;;51.92;25.50;;;;;;;;;;5050925;28;44906;-82
2021/12/23 08:37:18;;;;;;;52.78;26.08;;;;;;;;;;5050979;28;44822;-82
2021/12/23 08:39:47;;;;;;;51.55;25.55;;;;;;;;;;5050115;28;45362;-82
2021/12/23 08:42:14;;;;;;;49.85;25.90;;;;;;;;;;5049906;28;43910;-83
2021/12/23 08:44:41;;;;;;;51.08;26.23;;;;;;;;;;5050825;28;43712;-82
2021/12/23 08:47:09;;;;;;;52.95;27.33;;;;;;;;;;5048525;28;43911;-82
2021/12/23 08:49:36;;;;;;;54.08;26.63;;;;;;;;;;5051025;28;43852;-83
2021/12/23 08:52:03;;;;;;;45.70;24.77;;;;;;;;;;5047364;28;44029;-82
2021/12/23 08:54:30;;;;;;;49.65;25.33;;;;;;;;;;5049261;28;44896;-82
2021/12/23 08:56:57;;;;;;;61.80;26.17;;;;;;;;;;5049275;28;45720;-81
2021/12/23 08:59:23;;;;;;;52.28;25.95;;;;;;;;;;5049841;28;45012;-82
2021/12/23 09:01:50;;;;;;;52.97;25.63;;;;;;;;;;5048000;28;43917;-83
2021/12/23 09:04:17;;;;;;;54.55;27.60;;;;;;;;;;5050491;28;44863;-83
2021/12/23 09:06:44;;;;;;;49.08;24.48;;;;;;;;;;5050194;28;44248;-83
2021/12/23 09:09:11;;;;;;;51.00;25.85;;;;;;;;;;5051130;28;44242;-83
2021/12/23 09:11:38;;;;;;;53.72;25.92;;;;;;;;;;5051531;28;43767;-83
2021/12/23 09:14:05;;;;;;;52.25;25.13;;;;;;;;;;5051492;28;45146;-83
2021/12/23 09:16:32;;;;;;;55.40;26.60;;;;;;;;;;5050820;28;45086;-85
2021/12/23 09:18:59;;;;;;;52.30;25.98;;;;;;;;;;5052503;28;20053;-83
2021/12/23 09:21:26;;;;;;;48.45;25.58;;;;;;;;;;5051551;28;42943;-84
2021/12/23 09:24:00;;;;;;;48.13;25.85;;;;;;;;;;5051409;28;42678;-85
2021/12/23 09:26:28;;;;;;;51.63;27.75;;;;;;;;;;5050877;28;42496;-83
2021/12/23 09:29:02;;;;;;;50.42;24.63;;;;;;;;;;5050717;28;44831;-84
2021/12/23 09:34:15;;;;;;;48.53;25.38;;;;;;;;;;5051643;28;43987;-83
2021/12/23 09:36:42;;;;;;;44.28;24.25;;;;;;;;;;5050338;28;44772;-82
2021/12/23 09:39:10;;;;;;;53.05;25.77;;;;;;;;;;5051557;28;40135;-82
2021/12/23 09:41:38;;;;;;;53.58;25.40;;;;;;;;;;5050807;28;43912;-85
2021/12/23 09:44:06;;;;;;;52.03;25.50;;;;;;;;;;5049829;28;43148;-84
2021/12/23 09:46:34;;;;;;;49.45;25.05;;;;;;;;;;5051129;28;44919;-86
2021/12/23 09:49:01;;;;;;;;;;;;;;;;;;5052736;28;43106;-84
2021/12/23 09:51:29;;;;;;;46.50;24.83;;;;;;;;;;5050489;28;44675;-84
2021/12/23 09:53:59;;;;;;;49.00;25.20;;;;;;;;;;5050974;28;44413;-84
2021/12/23 09:56:27;;;;;;;48.30;25.88;;;;;;;;;;5051247;28;43088;-85
2021/12/23 09:58:56;;;;;;;49.92;26.63;;;;;;;;;;5050284;28;43862;-84
2021/12/23 10:01:24;;;;;;;50.75;25.08;;;;;;;;;;5050602;28;42895;-85
2021/12/23 10:03:51;;;;;;;54.97;26.43;;;;;;;;;;5049454;28;44828;-86
2021/12/23 10:06:18;;;;;;;49.83;25.17;;;;;;;;;;5049605;28;45063;-85
2021/12/23 10:08:45;;;;;;;50.58;25.15;;;;;;;;;;5044152;28;42928;-85
2021/12/23 10:31:05;;;;;;;50.22;24.90;;;;;;;;;;5047700;28;43540;-86
2021/12/23 10:38:38;;;;;;;47.35;25.08;;;;;;;;;;5046852;28;46793;-86
2021/12/23 10:41:14;;;;;;;48.80;25.17;;;;;;;;;;5046993;28;44733;-84
2021/12/23 10:43:42;;;;;;;47.50;23.40;;;;;;;;;;5042092;28;42648;-85
2021/12/23 10:46:09;;;;;;;;;;;;;;;;;;5047564;28;42729;-86
2021/12/23 10:48:53;;;;;;;46.88;25.20;;;;;;;;;;5048433;28;43234;-87
2021/12/23 10:51:21;;;;;;;44.38;23.98;;;;;;;;;;5016652;28;43893;-87
2021/12/23 10:54:15;;;;;;;49.22;25.17;;;;;;;;;;5023667;28;43785;-87
2021/12/23 10:59:27;;;;;;;47.22;25.25;;;;;;;;;;5026361;28;44952;-86
2021/12/23 11:02:03;;;;;;;52.83;25.50;;;;;;;;;;5025076;28;44807;-85
2021/12/23 11:04:37;;;;;;;54.47;25.98;;;;;;;;;;5027890;28;42861;-87
2021/12/23 11:07:15;;;;;;;50.47;25.20;;;;;;;;;;5024801;28;43699;-88
2021/12/23 11:10:04;;;;;;;52.20;25.15;;;;;;;;;;5025750;28;44907;-86
2021/12/23 11:38:10;;;;;;;44.53;23.42;;;;;;;;;;5023678;28;42994;-86
2021/12/23 11:40:50;;;;;;;43.03;22.92;;;;;;;;;;5019088;28;43847;-86
2021/12/23 11:45:49;;;;;;;51.03;24.45;;;;;;;;;;5026191;28;44794;-86
2021/12/23 11:48:16;;;;;;;49.53;24.52;;;;;;;;;;5025818;28;44944;-86
2021/12/23 11:53:47;;;;;;;50.20;24.10;;;;;;;;;;5019611;28;42535;-86
2021/12/23 11:56:14;;;;;;;55.42;25.42;;;;;;;;;;5024634;28;45452;-85
2021/12/23 11:58:43;;;;;;;50.05;23.67;;;;;;;;;;5025004;28;44683;-86
2021/12/23 12:01:20;;;;;;;46.30;23.25;;;;;;;;;;5023588;28;45098;-85
2021/12/23 12:04:07;;;;;;;48.85;23.98;;;;;;;;;;5025292;28;44880;-86
2021/12/23 12:06:39;;;;;;;44.05;23.25;;;;;;;;;;5026622;28;43719;-86
2021/12/23 12:09:16;;;;;;;48.53;23.35;;;;;;;;;;5025900;28;44974;-85
2021/12/23 12:11:58;;;;;;;50.63;24.00;;;;;;;;;;5022746;28;43862;-86
2021/12/23 12:14:41;;;;;;;49.40;23.23;;;;;;;;;;5024111;28;45080;-85
2021/12/23 12:17:23;;;;;;;49.85;23.70;;;;;;;;;;5025344;28;45697;-89
2021/12/23 12:19:51;;;;;;;59.85;25.48;;;;;;;;;;5024801;28;43282;-86
2021/12/23 12:22:37;;;;;;;43.63;24.55;;;;;;;;;;5024305;28;46130;-86
2021/12/23 12:25:03;;;;;;;55.42;24.10;;;;;;;;;;5022457;28;45050;-86
2021/12/23 12:27:30;;;;;;;50.03;24.42;;;;;;;;;;5026341;28;44733;-86
2021/12/23 12:30:10;;;;;;;51.67;24.27;;;;;;;;;;5025923;28;44219;-86
2021/12/23 12:32:37;;;;;;;50.15;24.30;;;;;;;;;;5024719;28;42963;-86
2021/12/23 12:35:19;;;;;;;48.90;25.40;;;;;;;;;;5027325;28;43861;-85
2021/12/23 12:37:46;;;;;;;49.40;23.98;;;;;;;;;;5026915;28;45192;-85
2021/12/23 12:40:12;;;;;;;51.03;24.80;;;;;;;;;;5027991;28;36443;-86
2021/12/23 12:42:45;;;;;;;52.03;25.00;;;;;;;;;;5028509;28;42618;-85
2021/12/23 12:45:23;;;;;;;45.50;23.40;;;;;;;;;;5029531;28;43886;-86
2021/12/23 12:47:55;;;;;;;46.50;24.13;;;;;;;;;;5027771;28;45254;-86
2021/12/23 12:50:27;;;;;;;45.42;23.45;;;;;;;;;;5027229;28;43998;-86
2021/12/23 12:53:00;;;;;;;52.10;25.05;;;;;;;;;;5029444;28;43578;-86
2021/12/23 12:55:27;;;;;;;54.13;24.60;;;;;;;;;;5044768;28;42670;-86
2021/12/23 12:57:58;;;;;;;45.03;23.17;;;;;;;;;;5051341;28;43963;-86
2021/12/23 13:00:29;;;;;;;47.17;23.40;;;;;;;;;;5030529;28;44084;-85
2021/12/23 13:02:58;;;;;;;53.90;25.38;;;;;;;;;;5029324;28;43145;-85
2021/12/23 13:05:28;;;;;;;53.75;24.52;;;;;;;;;;5028990;28;43871;-84
2021/12/23 13:07:55;;;;;;;49.63;23.48;;;;;;;;;;5029103;28;45030;-84
2021/12/23 13:10:28;;;;;;;50.63;24.80;;;;;;;;;;5025913;28;45379;-85
2021/12/23 13:13:00;;;;;;;52.40;25.63;;;;;;;;;;5027671;28;43376;-84
2021/12/23 13:15:31;;;;;;;47.17;25.02;;;;;;;;;;5028256;28;44258;-86
2021/12/23 13:18:08;;;;;;;47.00;23.40;;;;;;;;;;5028857;28;44946;-84
2021/12/23 13:20:40;;;;;;;52.58;24.33;;;;;;;;;;5028388;28;42909;-85
2021/12/23 13:23:11;;;;;;;46.10;23.63;;;;;;;;;;5023997;28;42954;-86
2021/12/23 13:25:49;;;;;;;52.17;25.42;;;;;;;;;;5028592;28;44088;-85
2021/12/23 13:28:19;;;;;;;44.87;22.27;;;;;;;;;;5028211;28;43798;-85
2021/12/23 13:30:46;;;;;;;56.47;25.85;;;;;;;;;;5029007;28;41827;-84
2021/12/23 13:33:13;;;;;;;47.58;23.95;;;;;;;;;;5028199;28;43142;-84
2021/12/23 13:35:40;;;;;;;46.67;23.42;;;;;;;;;;5029162;28;44730;-84
2021/12/23 13:38:07;;;;;;;46.10;24.17;;;;;;;;;;5028457;28;43894;-84
2021/12/23 13:40:35;;;;;;;47.22;25.23;;;;;;;;;;5030170;28;44019;-85
2021/12/23 13:43:02;;;;;;;;;;;;;;;;;;5029706;28;44749;-85
2021/12/23 13:45:30;;;;;;;50.72;24.42;;;;;;;;;;5030838;28;45446;-85
2021/12/23 13:47:58;;;;;;;51.90;23.77;;;;;;;;;;5029138;28;43734;-85
2021/12/23 13:50:25;;;;;;;48.03;24.67;;;;;;;;;;5029558;28;40878;-85
2021/12/23 13:52:53;;;;;;;49.43;25.13;;;;;;;;;;5029288;28;42920;-85
2021/12/23 13:55:25;;;;;;;51.72;24.67;;;;;;;;;;5030946;28;20421;-84
2021/12/23 13:57:55;;;;;;;47.08;23.65;;;;;;;;;;5028567;28;43950;-84
2021/12/23 14:00:21;;;;;;;50.22;25.13;;;;;;;;;;5030308;28;43764;-84
2021/12/23 14:02:53;;;;;;;54.13;25.77;;;;;;;;;;5028108;28;43639;-84
2021/12/23 14:05:23;;;;;;;50.22;24.05;;;;;;;;;;5029726;28;42927;-85
2021/12/23 14:07:51;;;;;;;48.08;24.38;;;;;;;;;;5029942;28;44300;-85
2021/12/23 14:10:20;;;;;;;51.58;24.65;;;;;;;;;;5029620;28;47181;-84
2021/12/23 14:12:56;;;;;;;47.03;24.35;;;;;;;;;;5029055;28;43865;-86
2021/12/23 14:15:22;;;;;;;56.03;24.75;;;;;;;;;;5029986;28;44291;-85
2021/12/23 14:17:50;;;;;;;47.88;24.65;;;;;;;;;;5028155;28;43892;-86
2021/12/23 14:23:12;;;;;;;49.38;25.00;;;;;;;;;;5027861;28;43842;-87
2021/12/23 14:25:43;;;;;;;43.10;23.73;;;;;;;;;;5029037;28;42865;-86
2021/12/23 14:28:11;;;;;;;54.08;26.77;;;;;;;;;;5028235;28;44901;-85
2021/12/23 14:30:40;;;;;;;44.55;22.60;;;;;;;;;;5030200;28;43722;-87
2021/12/23 14:33:08;;;;;;;55.67;26.83;;;;;;;;;;5027726;28;43815;-84
2021/12/23 14:35:37;;;;;;;45.42;24.60;;;;;;;;;;5047810;28;40730;-86
2021/12/23 14:38:14;;;;;;;51.35;23.17;;;;;;;;;;5045417;28;42422;-84
2021/12/23 14:40:40;;;;;;;48.45;25.20;;;;;;;;;;5047795;28;43781;-85
2021/12/23 14:43:07;;;;;;;48.05;24.33;;;;;;;;;;5039477;28;44754;-84
2021/12/23 14:45:34;;;;;;;55.55;25.13;;;;;;;;;;5027011;28;43891;-85
2021/12/23 14:48:09;;;;;;;48.67;24.98;;;;;;;;;;5026930;28;43402;-85
2021/12/23 14:50:48;;;;;;;49.00;23.80;;;;;;;;;;5027880;28;43758;-84
2021/12/23 14:53:17;;;;;;;47.03;24.13;;;;;;;;;;5024422;28;43908;-85
2021/12/23 14:55:52;;;;;;;52.45;23.77;;;;;;;;;;5026680;28;43649;-86
2021/12/23 14:58:18;;;;;;;49.38;23.92;;;;;;;;;;5027146;28;43451;-84
2021/12/23 15:00:45;;;;;;;46.55;23.88;;;;;;;;;;5023924;28;43746;-84
2021/12/23 15:03:19;;;;;;;48.75;24.88;;;;;;;;;;5020840;28;42736;-85
2021/12/23 15:05:47;;;;;;;42.85;23.55;;;;;;;;;;5027802;28;44922;-85
2021/12/23 15:08:18;;;;;;;52.40;25.10;;;;;;;;;;5045801;28;44890;-85
2021/12/23 15:10:48;;;;;;;45.35;24.10;;;;;;;;;;5047876;28;44158;-86
2021/12/23 15:13:27;;;;;;;42.15;23.30;;;;;;;;;;5045821;28;42708;-85
2021/12/23 15:15:58;;;;;;;48.85;23.83;;;;;;;;;;5047722;28;43699;-85
2021/12/23 15:18:41;;;;;;;53.03;25.02;;;;;;;;;;5035170;28;44349;-86
2021/12/23 15:21:19;;;;;;;47.80;24.20;;;;;;;;;;5046564;28;42827;-85
2021/12/23 15:23:47;;;;;;;55.55;25.77;;;;;;;;;;5032866;28;43303;-85
2021/12/23 15:26:21;;;;;;;42.53;23.60;;;;;;;;;;5027674;28;44894;-85
2021/12/23 15:29:05;;;;;;;52.92;26.17;;;;;;;;;;5026608;28;44971;-85
2021/12/23 15:31:32;;;;;;;45.97;24.20;;;;;;;;;;5027642;28;43697;-85
2021/12/23 15:33:59;;;;;;;49.35;26.80;;;;;;;;;;5027567;28;45393;-85
2021/12/23 15:36:26;;;;;;;46.88;26.00;;;;;;;;;;5026732;28;42879;-84